sensor_id;sensor_type;location;lat;lon;timestamp;P1;durP1;ratioP1;P2;durP2;ratioP2
14181;SDS011;7171;50.936;6.764;2023-12-20T00:02:15;3.77;;;2.97;;
14181;SDS011;7171;50.936;6.764;2023-12-20T00:04:41;4.77;;;2.37;;
14181;SDS011;7171;50.936;6.764;2023-12-20T00:07:08;3.17;;;2.40;;
14181;SDS011;7171;50.936;6.764;2023-12-20T00:09:35;2.97;;;2.50;;
14181;SDS011;7171;50.936;6.764;2023-12-20T00:12:02;3.23;;;2.60;;
14181;SDS011;7171;50.936;6.764;2023-12-20T00:14:29;4.70;;;3.07;;
14181;SDS011;7171;50.936;6.764;2023-12-20T00:16:55;3.13;;;2.20;;
14181;SDS011;7171;50.936;6.764;2023-12-20T00:19:23;3.77;;;2.67;;
14181;SDS011;7171;50.936;6.764;2023-12-20T00:21:50;4.40;;;3.13;;
14181;SDS011;7171;50.936;6.764;2023-12-20T00:24:17;2.97;;;2.67;;
14181;SDS011;7171;50.936;6.764;2023-12-20T00:26:43;3.90;;;2.67;;
14181;SDS011;7171;50.936;6.764;2023-12-20T00:29:10;3.47;;;2.13;;
14181;SDS011;7171;50.936;6.764;2023-12-20T00:31:37;7.30;;;3.23;;
14181;SDS011;7171;50.936;6.764;2023-12-20T00:34:04;2.57;;;1.93;;
14181;SDS011;7171;50.936;6.764;2023-12-20T00:36:32;3.60;;;2.73;;
14181;SDS011;7171;50.936;6.764;2023-12-20T00:38:58;4.10;;;2.77;;
14181;SDS011;7171;50.936;6.764;2023-12-20T00:41:25;2.70;;;2.13;;
14181;SDS011;7171;50.936;6.764;2023-12-20T00:43:52;3.17;;;2.47;;
14181;SDS011;7171;50.936;6.764;2023-12-20T00:46:19;4.17;;;2.97;;
14181;SDS011;7171;50.936;6.764;2023-12-20T00:48:45;3.83;;;3.13;;
14181;SDS011;7171;50.936;6.764;2023-12-20T00:51:12;5.20;;;3.57;;
14181;SDS011;7171;50.936;6.764;2023-12-20T00:53:40;2.83;;;2.17;;
14181;SDS011;7171;50.936;6.764;2023-12-20T00:56:08;2.47;;;2.27;;
14181;SDS011;7171;50.936;6.764;2023-12-20T00:58:35;4.03;;;2.80;;
14181;SDS011;7171;50.936;6.764;2023-12-20T01:01:01;2.97;;;2.40;;
14181;SDS011;7171;50.936;6.764;2023-12-20T01:03:28;4.60;;;2.03;;
14181;SDS011;7171;50.936;6.764;2023-12-20T01:05:55;4.57;;;2.87;;
14181;SDS011;7171;50.936;6.764;2023-12-20T01:08:22;5.43;;;3.43;;
14181;SDS011;7171;50.936;6.764;2023-12-20T01:10:50;3.67;;;2.97;;
14181;SDS011;7171;50.936;6.764;2023-12-20T01:13:17;4.27;;;2.60;;
14181;SDS011;7171;50.936;6.764;2023-12-20T01:15:44;5.37;;;3.10;;
14181;SDS011;7171;50.936;6.764;2023-12-20T01:18:12;4.57;;;3.20;;
14181;SDS011;7171;50.936;6.764;2023-12-20T01:20:39;4.47;;;2.73;;
14181;SDS011;7171;50.936;6.764;2023-12-20T01:23:06;6.53;;;2.40;;
14181;SDS011;7171;50.936;6.764;2023-12-20T01:25:32;4.97;;;2.77;;
14181;SDS011;7171;50.936;6.764;2023-12-20T01:28:00;4.97;;;3.07;;
14181;SDS011;7171;50.936;6.764;2023-12-20T01:30:28;4.87;;;3.27;;
14181;SDS011;7171;50.936;6.764;2023-12-20T01:32:54;5.30;;;3.83;;
14181;SDS011;7171;50.936;6.764;2023-12-20T01:35:21;4.43;;;2.77;;
14181;SDS011;7171;50.936;6.764;2023-12-20T01:37:48;9.77;;;3.17;;
14181;SDS011;7171;50.936;6.764;2023-12-20T01:40:15;5.17;;;3.87;;
14181;SDS011;7171;50.936;6.764;2023-12-20T01:42:42;5.33;;;3.37;;
14181;SDS011;7171;50.936;6.764;2023-12-20T01:45:10;3.63;;;2.23;;
14181;SDS011;7171;50.936;6.764;2023-12-20T01:47:37;3.27;;;2.10;;
14181;SDS011;7171;50.936;6.764;2023-12-20T01:50:05;2.27;;;2.07;;
14181;SDS011;7171;50.936;6.764;2023-12-20T01:52:33;3.43;;;2.10;;
14181;SDS011;7171;50.936;6.764;2023-12-20T01:55:00;6.60;;;2.07;;
14181;SDS011;7171;50.936;6.764;2023-12-20T01:57:29;2.37;;;2.10;;
14181;SDS011;7171;50.936;6.764;2023-12-20T01:59:56;5.33;;;1.70;;
14181;SDS011;7171;50.936;6.764;2023-12-20T02:02:25;5.10;;;2.73;;
14181;SDS011;7171;50.936;6.764;2023-12-20T02:04:53;2.57;;;2.00;;
14181;SDS011;7171;50.936;6.764;2023-12-20T02:07:20;3.50;;;2.00;;
14181;SDS011;7171;50.936;6.764;2023-12-20T02:09:48;6.93;;;1.33;;
14181;SDS011;7171;50.936;6.764;2023-12-20T02:12:14;5.03;;;1.90;;
14181;SDS011;7171;50.936;6.764;2023-12-20T02:14:41;1.30;;;1.20;;
14181;SDS011;7171;50.936;6.764;2023-12-20T02:17:08;3.60;;;1.47;;
14181;SDS011;7171;50.936;6.764;2023-12-20T02:19:36;1.80;;;1.27;;
14181;SDS011;7171;50.936;6.764;2023-12-20T02:22:09;2.57;;;2.00;;
14181;SDS011;7171;50.936;6.764;2023-12-20T02:24:36;1.47;;;1.27;;
14181;SDS011;7171;50.936;6.764;2023-12-20T02:27:03;3.03;;;1.50;;
14181;SDS011;7171;50.936;6.764;2023-12-20T02:29:32;1.40;;;1.10;;
14181;SDS011;7171;50.936;6.764;2023-12-20T02:31:59;11.37;;;2.20;;
14181;SDS011;7171;50.936;6.764;2023-12-20T02:34:26;2.67;;;1.60;;
14181;SDS011;7171;50.936;6.764;2023-12-20T02:36:52;1.60;;;1.50;;
14181;SDS011;7171;50.936;6.764;2023-12-20T02:39:21;1.63;;;1.37;;
14181;SDS011;7171;50.936;6.764;2023-12-20T02:41:48;2.80;;;1.30;;
14181;SDS011;7171;50.936;6.764;2023-12-20T02:44:15;5.63;;;1.60;;
14181;SDS011;7171;50.936;6.764;2023-12-20T02:46:42;1.17;;;0.90;;
14181;SDS011;7171;50.936;6.764;2023-12-20T02:49:09;2.40;;;1.77;;
14181;SDS011;7171;50.936;6.764;2023-12-20T02:51:35;5.47;;;2.10;;
14181;SDS011;7171;50.936;6.764;2023-12-20T02:54:03;5.73;;;1.60;;
14181;SDS011;7171;50.936;6.764;2023-12-20T02:56:31;1.50;;;0.90;;
14181;SDS011;7171;50.936;6.764;2023-12-20T02:58:58;2.07;;;1.33;;
14181;SDS011;7171;50.936;6.764;2023-12-20T03:01:25;3.80;;;0.87;;
14181;SDS011;7171;50.936;6.764;2023-12-20T03:03:52;10.37;;;1.30;;
14181;SDS011;7171;50.936;6.764;2023-12-20T03:06:19;0.87;;;0.87;;
14181;SDS011;7171;50.936;6.764;2023-12-20T03:08:45;7.17;;;1.50;;
14181;SDS011;7171;50.936;6.764;2023-12-20T03:11:12;1.03;;;0.93;;
14181;SDS011;7171;50.936;6.764;2023-12-20T03:13:40;3.93;;;1.20;;
14181;SDS011;7171;50.936;6.764;2023-12-20T03:16:10;4.93;;;1.20;;
14181;SDS011;7171;50.936;6.764;2023-12-20T03:18:37;1.93;;;1.10;;
14181;SDS011;7171;50.936;6.764;2023-12-20T03:21:05;6.53;;;0.97;;
14181;SDS011;7171;50.936;6.764;2023-12-20T03:23:32;1.50;;;1.10;;
14181;SDS011;7171;50.936;6.764;2023-12-20T03:25:59;1.23;;;1.13;;
14181;SDS011;7171;50.936;6.764;2023-12-20T03:28:26;2.63;;;1.20;;
14181;SDS011;7171;50.936;6.764;2023-12-20T03:30:55;1.07;;;1.00;;
14181;SDS011;7171;50.936;6.764;2023-12-20T03:33:22;2.00;;;1.17;;
14181;SDS011;7171;50.936;6.764;2023-12-20T03:35:48;1.27;;;1.10;;
14181;SDS011;7171;50.936;6.764;2023-12-20T03:38:15;1.73;;;1.63;;
14181;SDS011;7171;50.936;6.764;2023-12-20T03:40:42;2.43;;;1.80;;
14181;SDS011;7171;50.936;6.764;2023-12-20T03:43:09;1.10;;;1.00;;
14181;SDS011;7171;50.936;6.764;2023-12-20T03:45:35;9.27;;;1.37;;
14181;SDS011;7171;50.936;6.764;2023-12-20T03:48:04;7.07;;;1.33;;
14181;SDS011;7171;50.936;6.764;2023-12-20T03:50:32;12.13;;;1.87;;
14181;SDS011;7171;50.936;6.764;2023-12-20T03:53:00;1.67;;;1.57;;
14181;SDS011;7171;50.936;6.764;2023-12-20T03:55:26;3.80;;;1.40;;
14181;SDS011;7171;50.936;6.764;2023-12-20T03:57:53;10.03;;;1.57;;
14181;SDS011;7171;50.936;6.764;2023-12-20T04:00:20;1.23;;;1.13;;
14181;SDS011;7171;50.936;6.764;2023-12-20T04:02:46;5.50;;;1.43;;
14181;SDS011;7171;50.936;6.764;2023-12-20T04:05:14;0.87;;;0.87;;
14181;SDS011;7171;50.936;6.764;2023-12-20T04:07:41;3.73;;;1.70;;
14181;SDS011;7171;50.936;6.764;2023-12-20T04:10:09;8.60;;;2.37;;
14181;SDS011;7171;50.936;6.764;2023-12-20T04:12:35;8.40;;;1.63;;
14181;SDS011;7171;50.936;6.764;2023-12-20T04:15:02;12.53;;;1.50;;
14181;SDS011;7171;50.936;6.764;2023-12-20T04:17:34;4.50;;;1.87;;
14181;SDS011;7171;50.936;6.764;2023-12-20T04:20:00;2.87;;;1.10;;
14181;SDS011;7171;50.936;6.764;2023-12-20T04:22:29;5.50;;;1.47;;
14181;SDS011;7171;50.936;6.764;2023-12-20T04:24:55;2.07;;;1.87;;
14181;SDS011;7171;50.936;6.764;2023-12-20T04:27:22;5.50;;;1.23;;
14181;SDS011;7171;50.936;6.764;2023-12-20T04:29:49;8.73;;;2.00;;
14181;SDS011;7171;50.936;6.764;2023-12-20T04:32:15;7.20;;;1.90;;
14181;SDS011;7171;50.936;6.764;2023-12-20T04:34:42;2.80;;;1.60;;
14181;SDS011;7171;50.936;6.764;2023-12-20T04:37:09;5.83;;;1.57;;
14181;SDS011;7171;50.936;6.764;2023-12-20T04:39:37;4.73;;;1.97;;
14181;SDS011;7171;50.936;6.764;2023-12-20T04:42:04;1.80;;;1.53;;
14181;SDS011;7171;50.936;6.764;2023-12-20T04:44:31;2.20;;;1.90;;
14181;SDS011;7171;50.936;6.764;2023-12-20T04:46:57;1.30;;;1.13;;
14181;SDS011;7171;50.936;6.764;2023-12-20T04:49:24;2.00;;;1.27;;
14181;SDS011;7171;50.936;6.764;2023-12-20T04:51:51;9.33;;;1.97;;
14181;SDS011;7171;50.936;6.764;2023-12-20T04:54:18;7.50;;;1.47;;
14181;SDS011;7171;50.936;6.764;2023-12-20T04:56:46;2.53;;;1.27;;
14181;SDS011;7171;50.936;6.764;2023-12-20T04:59:13;2.47;;;1.67;;
14181;SDS011;7171;50.936;6.764;2023-12-20T05:01:40;1.27;;;1.17;;
14181;SDS011;7171;50.936;6.764;2023-12-20T05:04:06;5.63;;;1.70;;
14181;SDS011;7171;50.936;6.764;2023-12-20T05:06:33;1.57;;;1.37;;
14181;SDS011;7171;50.936;6.764;2023-12-20T05:09:00;1.40;;;1.30;;
14181;SDS011;7171;50.936;6.764;2023-12-20T05:11:27;4.60;;;1.70;;
14181;SDS011;7171;50.936;6.764;2023-12-20T05:13:55;1.67;;;1.57;;
14181;SDS011;7171;50.936;6.764;2023-12-20T05:16:22;1.73;;;1.63;;
14181;SDS011;7171;50.936;6.764;2023-12-20T05:18:49;5.13;;;1.90;;
14181;SDS011;7171;50.936;6.764;2023-12-20T05:21:17;1.37;;;1.27;;
14181;SDS011;7171;50.936;6.764;2023-12-20T05:23:44;8.23;;;1.97;;
14181;SDS011;7171;50.936;6.764;2023-12-20T05:26:11;5.40;;;1.90;;
14181;SDS011;7171;50.936;6.764;2023-12-20T05:28:38;1.97;;;1.50;;
14181;SDS011;7171;50.936;6.764;2023-12-20T05:31:06;1.73;;;1.63;;
14181;SDS011;7171;50.936;6.764;2023-12-20T05:33:32;7.57;;;1.90;;
14181;SDS011;7171;50.936;6.764;2023-12-20T05:35:59;4.40;;;1.50;;
14181;SDS011;7171;50.936;6.764;2023-12-20T05:38:26;2.83;;;1.10;;
14181;SDS011;7171;50.936;6.764;2023-12-20T05:40:53;6.03;;;1.80;;
14181;SDS011;7171;50.936;6.764;2023-12-20T05:43:20;10.73;;;2.33;;
14181;SDS011;7171;50.936;6.764;2023-12-20T05:45:46;5.70;;;1.50;;
14181;SDS011;7171;50.936;6.764;2023-12-20T05:48:14;4.03;;;2.17;;
14181;SDS011;7171;50.936;6.764;2023-12-20T05:50:41;1.53;;;1.43;;
14181;SDS011;7171;50.936;6.764;2023-12-20T05:53:08;1.70;;;1.27;;
14181;SDS011;7171;50.936;6.764;2023-12-20T05:55:35;2.17;;;1.63;;
14181;SDS011;7171;50.936;6.764;2023-12-20T05:58:01;1.40;;;1.30;;
14181;SDS011;7171;50.936;6.764;2023-12-20T06:00:28;9.27;;;1.93;;
14181;SDS011;7171;50.936;6.764;2023-12-20T06:02:55;2.20;;;1.27;;
14181;SDS011;7171;50.936;6.764;2023-12-20T06:05:24;1.93;;;1.83;;
14181;SDS011;7171;50.936;6.764;2023-12-20T06:07:50;3.63;;;1.43;;
14181;SDS011;7171;50.936;6.764;2023-12-20T06:10:17;1.73;;;1.20;;
14181;SDS011;7171;50.936;6.764;2023-12-20T06:12:44;1.90;;;1.40;;
14181;SDS011;7171;50.936;6.764;2023-12-20T06:15:12;5.07;;;1.63;;
14181;SDS011;7171;50.936;6.764;2023-12-20T06:17:39;6.63;;;2.50;;
14181;SDS011;7171;50.936;6.764;2023-12-20T06:20:07;3.57;;;1.23;;
14181;SDS011;7171;50.936;6.764;2023-12-20T06:22:35;3.40;;;1.60;;
14181;SDS011;7171;50.936;6.764;2023-12-20T06:25:02;8.97;;;1.93;;
14181;SDS011;7171;50.936;6.764;2023-12-20T06:27:29;3.10;;;1.40;;
14181;SDS011;7171;50.936;6.764;2023-12-20T06:29:57;1.50;;;1.40;;
14181;SDS011;7171;50.936;6.764;2023-12-20T06:32:25;4.50;;;1.83;;
14181;SDS011;7171;50.936;6.764;2023-12-20T06:34:54;4.63;;;1.47;;
14181;SDS011;7171;50.936;6.764;2023-12-20T06:37:20;1.93;;;1.30;;
14181;SDS011;7171;50.936;6.764;2023-12-20T06:39:48;1.70;;;1.43;;
14181;SDS011;7171;50.936;6.764;2023-12-20T06:42:15;5.30;;;2.07;;
14181;SDS011;7171;50.936;6.764;2023-12-20T06:44:42;2.00;;;1.33;;
14181;SDS011;7171;50.936;6.764;2023-12-20T06:47:09;2.30;;;1.17;;
14181;SDS011;7171;50.936;6.764;2023-12-20T06:49:35;2.00;;;1.47;;
14181;SDS011;7171;50.936;6.764;2023-12-20T06:52:02;1.80;;;1.50;;
14181;SDS011;7171;50.936;6.764;2023-12-20T06:54:29;2.03;;;1.20;;
14181;SDS011;7171;50.936;6.764;2023-12-20T06:56:57;8.80;;;1.63;;
14181;SDS011;7171;50.936;6.764;2023-12-20T06:59:24;4.93;;;1.63;;
14181;SDS011;7171;50.936;6.764;2023-12-20T07:01:51;1.80;;;1.53;;
14181;SDS011;7171;50.936;6.764;2023-12-20T07:04:17;1.37;;;1.27;;
14181;SDS011;7171;50.936;6.764;2023-12-20T07:06:45;3.20;;;1.23;;
14181;SDS011;7171;50.936;6.764;2023-12-20T07:09:12;1.67;;;1.33;;
14181;SDS011;7171;50.936;6.764;2023-12-20T07:11:40;1.40;;;1.20;;
14181;SDS011;7171;50.936;6.764;2023-12-20T07:14:08;2.77;;;1.30;;
14181;SDS011;7171;50.936;6.764;2023-12-20T07:16:35;5.03;;;1.27;;
14181;SDS011;7171;50.936;6.764;2023-12-20T07:19:01;2.13;;;1.50;;
14181;SDS011;7171;50.936;6.764;2023-12-20T07:21:28;7.20;;;2.00;;
14181;SDS011;7171;50.936;6.764;2023-12-20T07:23:55;1.67;;;1.50;;
14181;SDS011;7171;50.936;6.764;2023-12-20T07:26:22;4.03;;;1.67;;
14181;SDS011;7171;50.936;6.764;2023-12-20T07:28:49;11.10;;;2.00;;
14181;SDS011;7171;50.936;6.764;2023-12-20T07:31:17;1.43;;;1.33;;
14181;SDS011;7171;50.936;6.764;2023-12-20T07:33:44;2.80;;;1.90;;
14181;SDS011;7171;50.936;6.764;2023-12-20T07:36:11;8.93;;;1.57;;
14181;SDS011;7171;50.936;6.764;2023-12-20T07:38:38;3.03;;;2.10;;
14181;SDS011;7171;50.936;6.764;2023-12-20T07:41:08;3.20;;;1.97;;
14181;SDS011;7171;50.936;6.764;2023-12-20T07:43:35;3.63;;;1.53;;
14181;SDS011;7171;50.936;6.764;2023-12-20T07:46:05;3.07;;;1.57;;
14181;SDS011;7171;50.936;6.764;2023-12-20T07:48:34;4.07;;;1.60;;
14181;SDS011;7171;50.936;6.764;2023-12-20T07:51:01;4.03;;;1.80;;
14181;SDS011;7171;50.936;6.764;2023-12-20T07:53:28;3.50;;;2.00;;
14181;SDS011;7171;50.936;6.764;2023-12-20T07:55:55;5.20;;;1.20;;
14181;SDS011;7171;50.936;6.764;2023-12-20T07:58:22;2.63;;;2.30;;
14181;SDS011;7171;50.936;6.764;2023-12-20T08:00:49;2.33;;;1.30;;
14181;SDS011;7171;50.936;6.764;2023-12-20T08:03:15;1.73;;;1.30;;
14181;SDS011;7171;50.936;6.764;2023-12-20T08:05:43;3.20;;;2.13;;
14181;SDS011;7171;50.936;6.764;2023-12-20T08:08:10;4.03;;;2.83;;
14181;SDS011;7171;50.936;6.764;2023-12-20T08:10:37;2.97;;;1.73;;
14181;SDS011;7171;50.936;6.764;2023-12-20T08:13:03;4.90;;;1.90;;
14181;SDS011;7171;50.936;6.764;2023-12-20T08:15:30;2.40;;;1.73;;
14181;SDS011;7171;50.936;6.764;2023-12-20T08:17:57;3.07;;;1.70;;
14181;SDS011;7171;50.936;6.764;2023-12-20T08:20:24;5.70;;;1.87;;
14181;SDS011;7171;50.936;6.764;2023-12-20T08:22:52;3.10;;;1.63;;
14181;SDS011;7171;50.936;6.764;2023-12-20T08:25:19;1.37;;;1.27;;
14181;SDS011;7171;50.936;6.764;2023-12-20T08:27:46;1.33;;;1.23;;
14181;SDS011;7171;50.936;6.764;2023-12-20T08:30:12;7.23;;;1.83;;
14181;SDS011;7171;50.936;6.764;2023-12-20T08:32:39;19.63;;;2.23;;
14181;SDS011;7171;50.936;6.764;2023-12-20T08:35:06;1.60;;;1.50;;
14181;SDS011;7171;50.936;6.764;2023-12-20T08:37:33;3.90;;;1.47;;
14181;SDS011;7171;50.936;6.764;2023-12-20T08:40:02;4.43;;;1.80;;
14181;SDS011;7171;50.936;6.764;2023-12-20T08:42:29;7.43;;;1.43;;
14181;SDS011;7171;50.936;6.764;2023-12-20T08:44:56;3.40;;;1.47;;
14181;SDS011;7171;50.936;6.764;2023-12-20T08:47:24;4.07;;;2.33;;
14181;SDS011;7171;50.936;6.764;2023-12-20T08:49:51;6.57;;;1.83;;
14181;SDS011;7171;50.936;6.764;2023-12-20T08:52:21;2.73;;;1.80;;
14181;SDS011;7171;50.936;6.764;2023-12-20T08:54:48;3.57;;;1.33;;
14181;SDS011;7171;50.936;6.764;2023-12-20T08:57:18;1.60;;;1.20;;
14181;SDS011;7171;50.936;6.764;2023-12-20T08:59:47;1.87;;;1.67;;
14181;SDS011;7171;50.936;6.764;2023-12-20T09:02:14;2.10;;;1.40;;
14181;SDS011;7171;50.936;6.764;2023-12-20T09:04:41;1.57;;;1.43;;
14181;SDS011;7171;50.936;6.764;2023-12-20T09:07:20;1.57;;;1.40;;
14181;SDS011;7171;50.936;6.764;2023-12-20T09:09:47;1.30;;;1.23;;
14181;SDS011;7171;50.936;6.764;2023-12-20T09:12:14;3.60;;;1.70;;
14181;SDS011;7171;50.936;6.764;2023-12-20T09:14:42;1.67;;;1.23;;
14181;SDS011;7171;50.936;6.764;2023-12-20T09:17:09;4.53;;;1.87;;
14181;SDS011;7171;50.936;6.764;2023-12-20T09:19:37;3.90;;;2.03;;
14181;SDS011;7171;50.936;6.764;2023-12-20T09:22:03;2.27;;;1.63;;
14181;SDS011;7171;50.936;6.764;2023-12-20T09:24:30;5.77;;;1.73;;
14181;SDS011;7171;50.936;6.764;2023-12-20T09:26:57;1.37;;;1.27;;
14181;SDS011;7171;50.936;6.764;2023-12-20T09:29:24;9.27;;;2.27;;
14181;SDS011;7171;50.936;6.764;2023-12-20T09:31:52;2.70;;;1.57;;
14181;SDS011;7171;50.936;6.764;2023-12-20T09:34:19;1.23;;;1.17;;
14181;SDS011;7171;50.936;6.764;2023-12-20T09:36:46;1.63;;;1.43;;
14181;SDS011;7171;50.936;6.764;2023-12-20T09:39:13;6.33;;;1.53;;
14181;SDS011;7171;50.936;6.764;2023-12-20T09:41:41;6.10;;;1.47;;
14181;SDS011;7171;50.936;6.764;2023-12-20T09:44:12;2.50;;;1.23;;
14181;SDS011;7171;50.936;6.764;2023-12-20T09:46:43;9.27;;;1.87;;
14181;SDS011;7171;50.936;6.764;2023-12-20T09:49:12;2.63;;;2.37;;
14181;SDS011;7171;50.936;6.764;2023-12-20T09:51:40;5.30;;;1.33;;
14181;SDS011;7171;50.936;6.764;2023-12-20T09:54:07;3.23;;;1.00;;
14181;SDS011;7171;50.936;6.764;2023-12-20T09:56:36;12.97;;;2.43;;
14181;SDS011;7171;50.936;6.764;2023-12-20T09:59:03;5.50;;;2.20;;
14181;SDS011;7171;50.936;6.764;2023-12-20T10:01:30;7.73;;;1.83;;
14181;SDS011;7171;50.936;6.764;2023-12-20T10:03:57;1.90;;;1.33;;
14181;SDS011;7171;50.936;6.764;2023-12-20T10:06:28;1.50;;;1.40;;
14181;SDS011;7171;50.936;6.764;2023-12-20T10:08:55;1.53;;;1.33;;
14181;SDS011;7171;50.936;6.764;2023-12-20T10:11:21;2.60;;;2.40;;
14181;SDS011;7171;50.936;6.764;2023-12-20T10:13:48;5.27;;;1.60;;
14181;SDS011;7171;50.936;6.764;2023-12-20T10:16:15;2.93;;;1.53;;
14181;SDS011;7171;50.936;6.764;2023-12-20T10:18:42;3.57;;;1.37;;
14181;SDS011;7171;50.936;6.764;2023-12-20T10:21:09;3.97;;;1.20;;
14181;SDS011;7171;50.936;6.764;2023-12-20T10:23:38;1.73;;;1.40;;
14181;SDS011;7171;50.936;6.764;2023-12-20T10:26:05;1.37;;;1.20;;
14181;SDS011;7171;50.936;6.764;2023-12-20T10:28:32;8.07;;;1.33;;
14181;SDS011;7171;50.936;6.764;2023-12-20T10:31:00;3.03;;;1.27;;
14181;SDS011;7171;50.936;6.764;2023-12-20T10:33:27;2.23;;;1.63;;
14181;SDS011;7171;50.936;6.764;2023-12-20T10:35:55;6.13;;;1.77;;
14181;SDS011;7171;50.936;6.764;2023-12-20T10:38:22;11.03;;;2.40;;
14181;SDS011;7171;50.936;6.764;2023-12-20T10:40:50;13.13;;;1.83;;
14181;SDS011;7171;50.936;6.764;2023-12-20T10:43:20;2.53;;;1.50;;
14181;SDS011;7171;50.936;6.764;2023-12-20T10:45:48;4.33;;;1.13;;
14181;SDS011;7171;50.936;6.764;2023-12-20T10:48:15;3.57;;;1.53;;
14181;SDS011;7171;50.936;6.764;2023-12-20T10:50:43;1.03;;;0.97;;
14181;SDS011;7171;50.936;6.764;2023-12-20T10:53:11;2.87;;;1.20;;
14181;SDS011;7171;50.936;6.764;2023-12-20T10:55:39;1.33;;;1.23;;
14181;SDS011;7171;50.936;6.764;2023-12-20T10:58:08;5.70;;;1.53;;
14181;SDS011;7171;50.936;6.764;2023-12-20T11:00:35;4.43;;;1.67;;
14181;SDS011;7171;50.936;6.764;2023-12-20T11:03:06;1.53;;;1.30;;
14181;SDS011;7171;50.936;6.764;2023-12-20T11:05:36;1.60;;;1.00;;
14181;SDS011;7171;50.936;6.764;2023-12-20T11:08:08;5.03;;;1.40;;
14181;SDS011;7171;50.936;6.764;2023-12-20T11:10:39;0.93;;;0.90;;
14181;SDS011;7171;50.936;6.764;2023-12-20T11:13:20;4.57;;;2.03;;
14181;SDS011;7171;50.936;6.764;2023-12-20T11:15:49;5.93;;;1.30;;
14181;SDS011;7171;50.936;6.764;2023-12-20T11:18:16;1.87;;;1.03;;
14181;SDS011;7171;50.936;6.764;2023-12-20T11:20:43;4.53;;;1.60;;
14181;SDS011;7171;50.936;6.764;2023-12-20T11:23:10;1.27;;;1.10;;
14181;SDS011;7171;50.936;6.764;2023-12-20T11:25:46;2.03;;;1.30;;
14181;SDS011;7171;50.936;6.764;2023-12-20T11:28:15;3.67;;;1.50;;
14181;SDS011;7171;50.936;6.764;2023-12-20T11:30:47;1.10;;;1.00;;
14181;SDS011;7171;50.936;6.764;2023-12-20T11:33:16;2.20;;;1.10;;
14181;SDS011;7171;50.936;6.764;2023-12-20T11:35:48;0.90;;;0.90;;
14181;SDS011;7171;50.936;6.764;2023-12-20T11:38:14;1.20;;;1.10;;
14181;SDS011;7171;50.936;6.764;2023-12-20T11:40:42;0.87;;;0.87;;
14181;SDS011;7171;50.936;6.764;2023-12-20T11:43:09;1.80;;;0.93;;
14181;SDS011;7171;50.936;6.764;2023-12-20T11:45:37;1.60;;;1.50;;
14181;SDS011;7171;50.936;6.764;2023-12-20T11:48:15;12.57;;;2.27;;
14181;SDS011;7171;50.936;6.764;2023-12-20T11:50:42;3.67;;;1.80;;
14181;SDS011;7171;50.936;6.764;2023-12-20T11:53:09;11.80;;;1.67;;
14181;SDS011;7171;50.936;6.764;2023-12-20T11:55:36;11.83;;;1.43;;
14181;SDS011;7171;50.936;6.764;2023-12-20T11:58:03;1.37;;;1.03;;
14181;SDS011;7171;50.936;6.764;2023-12-20T12:00:30;6.10;;;1.90;;
14181;SDS011;7171;50.936;6.764;2023-12-20T12:02:58;3.73;;;1.40;;
14181;SDS011;7171;50.936;6.764;2023-12-20T12:05:27;1.83;;;1.30;;
14181;SDS011;7171;50.936;6.764;2023-12-20T12:07:56;2.50;;;1.30;;
14181;SDS011;7171;50.936;6.764;2023-12-20T12:10:23;11.43;;;1.50;;
14181;SDS011;7171;50.936;6.764;2023-12-20T12:12:50;1.53;;;1.10;;
14181;SDS011;7171;50.936;6.764;2023-12-20T12:15:16;1.60;;;1.50;;
14181;SDS011;7171;50.936;6.764;2023-12-20T12:17:43;3.27;;;1.07;;
14181;SDS011;7171;50.936;6.764;2023-12-20T12:20:11;2.17;;;1.40;;
14181;SDS011;7171;50.936;6.764;2023-12-20T12:22:38;1.30;;;1.20;;
14181;SDS011;7171;50.936;6.764;2023-12-20T12:25:12;9.13;;;1.33;;
14181;SDS011;7171;50.936;6.764;2023-12-20T12:27:40;3.90;;;1.67;;
14181;SDS011;7171;50.936;6.764;2023-12-20T12:30:08;8.87;;;2.13;;
14181;SDS011;7171;50.936;6.764;2023-12-20T12:32:38;1.47;;;1.03;;
14181;SDS011;7171;50.936;6.764;2023-12-20T12:35:05;2.50;;;1.50;;
14181;SDS011;7171;50.936;6.764;2023-12-20T12:37:35;8.73;;;2.07;;
14181;SDS011;7171;50.936;6.764;2023-12-20T12:40:04;1.77;;;1.37;;
14181;SDS011;7171;50.936;6.764;2023-12-20T12:42:32;5.63;;;1.50;;
14181;SDS011;7171;50.936;6.764;2023-12-20T12:44:59;5.73;;;1.87;;
14181;SDS011;7171;50.936;6.764;2023-12-20T12:47:25;5.30;;;2.30;;
14181;SDS011;7171;50.936;6.764;2023-12-20T12:49:52;1.30;;;1.20;;
14181;SDS011;7171;50.936;6.764;2023-12-20T12:52:19;10.43;;;1.47;;
14181;SDS011;7171;50.936;6.764;2023-12-20T12:54:47;1.50;;;1.27;;
14181;SDS011;7171;50.936;6.764;2023-12-20T12:57:14;4.77;;;1.17;;
14181;SDS011;7171;50.936;6.764;2023-12-20T12:59:42;1.63;;;1.53;;
14181;SDS011;7171;50.936;6.764;2023-12-20T13:02:10;2.57;;;1.07;;
14181;SDS011;7171;50.936;6.764;2023-12-20T13:04:38;1.13;;;1.00;;
14181;SDS011;7171;50.936;6.764;2023-12-20T13:07:05;1.43;;;1.33;;
14181;SDS011;7171;50.936;6.764;2023-12-20T13:09:32;1.60;;;1.30;;
14181;SDS011;7171;50.936;6.764;2023-12-20T13:12:01;2.90;;;1.30;;
14181;SDS011;7171;50.936;6.764;2023-12-20T13:14:29;1.27;;;1.00;;
14181;SDS011;7171;50.936;6.764;2023-12-20T13:16:57;7.27;;;1.30;;
14181;SDS011;7171;50.936;6.764;2023-12-20T13:19:24;4.50;;;1.77;;
14181;SDS011;7171;50.936;6.764;2023-12-20T13:21:50;6.47;;;1.63;;
14181;SDS011;7171;50.936;6.764;2023-12-20T13:24:17;2.03;;;1.47;;
14181;SDS011;7171;50.936;6.764;2023-12-20T13:26:44;1.40;;;1.30;;
14181;SDS011;7171;50.936;6.764;2023-12-20T13:29:12;0.97;;;0.97;;
14181;SDS011;7171;50.936;6.764;2023-12-20T13:31:39;2.40;;;1.30;;
14181;SDS011;7171;50.936;6.764;2023-12-20T13:34:06;4.83;;;1.60;;
14181;SDS011;7171;50.936;6.764;2023-12-20T13:36:32;2.50;;;1.33;;
14181;SDS011;7171;50.936;6.764;2023-12-20T13:39:01;1.47;;;1.17;;
14181;SDS011;7171;50.936;6.764;2023-12-20T13:41:29;5.27;;;1.50;;
14181;SDS011;7171;50.936;6.764;2023-12-20T13:43:56;10.57;;;1.30;;
14181;SDS011;7171;50.936;6.764;2023-12-20T13:46:24;1.23;;;0.90;;
14181;SDS011;7171;50.936;6.764;2023-12-20T13:48:50;2.23;;;1.73;;
14181;SDS011;7171;50.936;6.764;2023-12-20T13:51:17;3.60;;;1.53;;
14181;SDS011;7171;50.936;6.764;2023-12-20T13:53:45;1.93;;;1.47;;
14181;SDS011;7171;50.936;6.764;2023-12-20T13:56:13;6.77;;;2.03;;
14181;SDS011;7171;50.936;6.764;2023-12-20T13:58:40;2.80;;;1.40;;
14181;SDS011;7171;50.936;6.764;2023-12-20T14:01:06;6.50;;;2.00;;
14181;SDS011;7171;50.936;6.764;2023-12-20T14:03:35;1.63;;;1.20;;
14181;SDS011;7171;50.936;6.764;2023-12-20T14:06:01;2.47;;;1.33;;
14181;SDS011;7171;50.936;6.764;2023-12-20T14:08:28;2.50;;;1.33;;
14181;SDS011;7171;50.936;6.764;2023-12-20T14:10:55;2.77;;;1.17;;
14181;SDS011;7171;50.936;6.764;2023-12-20T14:13:22;2.00;;;1.23;;
14181;SDS011;7171;50.936;6.764;2023-12-20T14:15:48;5.30;;;1.40;;
14181;SDS011;7171;50.936;6.764;2023-12-20T14:18:15;2.97;;;1.00;;
14181;SDS011;7171;50.936;6.764;2023-12-20T14:20:44;0.90;;;0.90;;
14181;SDS011;7171;50.936;6.764;2023-12-20T14:23:12;1.47;;;1.20;;
14181;SDS011;7171;50.936;6.764;2023-12-20T14:25:39;7.80;;;1.30;;
14181;SDS011;7171;50.936;6.764;2023-12-20T14:28:07;1.40;;;1.30;;
14181;SDS011;7171;50.936;6.764;2023-12-20T14:30:35;2.37;;;2.17;;
14181;SDS011;7171;50.936;6.764;2023-12-20T14:33:03;1.40;;;1.30;;
14181;SDS011;7171;50.936;6.764;2023-12-20T14:35:30;2.00;;;1.47;;
14181;SDS011;7171;50.936;6.764;2023-12-20T14:37:59;4.17;;;1.30;;
14181;SDS011;7171;50.936;6.764;2023-12-20T14:40:26;3.57;;;1.50;;
14181;SDS011;7171;50.936;6.764;2023-12-20T14:45:38;5.13;;;1.57;;
14181;SDS011;7171;50.936;6.764;2023-12-20T14:48:05;3.30;;;1.13;;
14181;SDS011;7171;50.936;6.764;2023-12-20T14:50:32;1.37;;;1.10;;
14181;SDS011;7171;50.936;6.764;2023-12-20T14:53:02;1.97;;;1.00;;
14181;SDS011;7171;50.936;6.764;2023-12-20T14:55:29;3.27;;;1.20;;
14181;SDS011;7171;50.936;6.764;2023-12-20T14:57:55;9.67;;;1.73;;
14181;SDS011;7171;50.936;6.764;2023-12-20T15:00:22;4.93;;;1.30;;
14181;SDS011;7171;50.936;6.764;2023-12-20T15:02:49;3.67;;;1.73;;
14181;SDS011;7171;50.936;6.764;2023-12-20T15:05:16;3.80;;;1.53;;